Time;durP1;ratioP1;P1;durP2;ratioP2;P2;SDS_P1;SDS_P2;PMS_P1;PMS_P2;Temp;Humidity;BMP_temperature;BMP_pressure;BME280_temperature;BME280_humidity;BME280_pressure;Samples;Min_cycle;Max_cycle;Signal;HPM_P1;HPM_P2
2022/06/27 00:01:00;;;;;;;7.05;5.13;;;;;;;21.67;53.84;99718.00;4993866;28;20054;-63
2022/06/27 00:03:27;;;;;;;7.43;4.80;;;;;;;21.66;53.71;99711.84;4994105;28;20050;-63
2022/06/27 00:05:54;;;;;;;6.20;4.15;;;;;;;21.66;53.98;99719.88;4993798;28;20697;-61
2022/06/27 00:08:20;;;;;;;5.45;4.18;;;;;;;21.66;54.09;99724.38;4976230;28;20081;-64
2022/06/27 00:10:47;;;;;;;4.97;3.95;;;;;;;21.65;53.80;99734.28;4993553;28;20487;-63
2022/06/27 00:13:13;;;;;;;6.10;3.83;;;;;;;21.64;54.00;99732.56;4993564;28;20054;-60
2022/06/27 00:15:40;;;;;;;4.32;3.88;;;;;;;21.63;54.04;99732.75;4993527;28;20051;-61
2022/06/27 00:18:07;;;;;;;5.03;4.00;;;;;;;21.59;54.23;99729.53;4993599;28;20058;-62
2022/06/27 00:20:34;;;;;;;5.25;3.70;;;;;;;21.57;54.20;99713.63;4993382;28;20065;-62
2022/06/27 00:23:01;;;;;;;5.78;4.35;;;;;;;21.55;54.29;99726.34;4993517;28;20050;-64
2022/06/27 00:25:27;;;;;;;7.95;4.22;;;;;;;21.52;54.14;99718.63;4975966;28;20054;-61
2022/06/27 00:27:54;;;;;;;5.47;3.60;;;;;;;21.49;54.36;99718.94;4993708;28;20101;-61
2022/06/27 00:30:21;;;;;;;4.10;3.70;;;;;;;21.47;54.54;99721.81;4993164;28;20042;-63
2022/06/27 00:32:48;;;;;;;4.90;4.00;;;;;;;21.45;54.72;99721.13;4993343;28;20055;-62
2022/06/27 00:35:15;;;;;;;4.53;3.70;;;;;;;21.44;54.71;99715.91;4975819;28;20156;-62
2022/06/27 00:37:42;;;;;;;6.22;3.55;;;;;;;21.43;54.90;99727.63;4993338;28;20058;-61
2022/06/27 00:40:08;;;;;;;4.72;3.75;;;;;;;21.41;55.04;99730.47;4992783;28;20042;-61
2022/06/27 00:42:35;;;;;;;4.93;3.72;;;;;;;21.41;55.05;99725.09;4993072;28;20591;-62
2022/06/27 00:45:03;;;;;;;3.88;3.30;;;;;;;21.41;55.11;99718.94;4993153;28;20058;-64
2022/06/27 00:47:30;;;;;;;4.50;3.50;;;;;;;21.39;55.15;99724.44;4975774;28;20073;-62
2022/06/27 00:49:57;;;;;;;5.50;3.88;;;;;;;21.39;55.12;99739.66;4992598;28;20050;-60
2022/06/27 00:52:24;;;;;;;3.55;3.22;;;;;;;21.37;55.18;99747.84;4992552;28;20057;-62
2022/06/27 00:54:51;;;;;;;4.43;4.03;;;;;;;21.35;55.22;99745.31;4992629;28;20056;-62
2022/06/27 00:57:18;;;;;;;4.20;3.80;;;;;;;21.33;55.37;99730.41;4992945;28;20054;-62
2022/06/27 00:59:45;;;;;;;5.70;3.40;;;;;;;21.33;55.55;99743.78;4975178;28;20478;-62
2022/06/27 01:02:11;;;;;;;6.05;3.90;;;;;;;21.29;55.39;99742.44;4992381;28;20058;-62
2022/06/27 01:04:38;;;;;;;7.45;3.70;;;;;;;21.28;55.58;99746.13;4992836;28;20065;-62
2022/06/27 01:07:06;;;;;;;4.43;3.42;;;;;;;21.25;55.67;99759.81;4992614;28;20484;-61
2022/06/27 01:09:40;;;;;;;5.10;4.03;;;;;;;21.24;55.80;99758.13;4992800;28;20050;-62
2022/06/27 01:12:07;;;;;;;4.20;3.80;;;;;;;21.24;55.93;99747.44;4975076;28;20495;-62
2022/06/27 01:14:34;;;;;;;5.30;3.95;;;;;;;21.21;55.95;99741.41;4992579;28;20561;-61
2022/06/27 01:17:01;;;;;;;4.07;3.65;;;;;;;21.19;55.95;99746.06;4992354;28;20445;-62
2022/06/27 01:19:28;;;;;;;4.88;4.00;;;;;;;21.18;56.04;99748.88;4992273;28;20060;-62
2022/06/27 01:21:56;;;;;;;4.57;4.15;;;;;;;21.17;56.24;99745.41;4992068;28;20111;-62
2022/06/27 01:24:26;;;;;;;4.10;3.70;;;;;;;21.14;56.41;99743.03;4992572;28;20046;-60
2022/06/27 01:26:53;;;;;;;4.40;3.92;;;;;;;21.15;56.35;99739.34;4992400;28;20058;-61
2022/06/27 01:29:20;;;;;;;5.32;4.20;;;;;;;21.15;56.48;99749.22;4974722;28;20054;-64
2022/06/27 01:31:47;;;;;;;7.25;4.70;;;;;;;21.13;56.54;99745.84;4992084;28;20050;-62
2022/06/27 01:34:15;;;;;;;5.60;4.38;;;;;;;21.11;56.60;99746.00;4974823;28;20058;-63
2022/06/27 01:36:41;;;;;;;5.57;3.78;;;;;;;21.11;56.62;99750.53;4974807;28;20050;-62
2022/06/27 01:39:11;;;;;;;4.38;3.88;;;;;;;21.08;56.88;99735.59;4992005;28;20062;-64
2022/06/27 01:41:40;;;;;;;5.68;4.07;;;;;;;21.08;56.97;99748.97;4974916;28;20061;-63
2022/06/27 01:44:09;;;;;;;6.85;4.13;;;;;;;21.08;57.00;99760.53;4974685;28;20074;-62
2022/06/27 01:46:47;;;;;;;5.03;4.07;;;;;;;21.05;57.59;99758.16;4974677;28;20132;-63
2022/06/27 01:49:16;;;;;;;6.05;4.30;;;;;;;21.08;56.97;99757.88;4991718;28;20051;-64
2022/06/27 01:51:48;;;;;;;5.15;4.25;;;;;;;21.09;56.95;99758.72;4992182;28;20065;-63
2022/06/27 01:54:18;;;;;;;7.77;5.20;;;;;;;21.08;57.41;99751.66;4991885;28;20054;-63
2022/06/27 01:56:46;;;;;;;4.55;4.03;;;;;;;21.08;57.00;99751.66;4974360;28;20113;-60
2022/06/27 01:59:14;;;;;;;6.10;4.25;;;;;;;21.07;57.44;99741.97;4974093;28;20046;-64
2022/06/27 02:01:42;;;;;;;5.50;4.50;;;;;;;21.06;57.36;99734.94;4974236;28;20046;-62
2022/06/27 02:04:11;;;;;;;5.55;4.43;;;;;;;21.05;57.39;99734.09;4991486;28;20085;-62
2022/06/27 02:06:39;;;;;;;4.40;4.00;;;;;;;21.03;57.38;99730.75;4974111;28;20051;-62
2022/06/27 02:09:08;;;;;;;4.90;4.30;;;;;;;21.03;57.79;99749.47;4974081;28;20081;-62
2022/06/27 02:11:36;;;;;;;5.10;4.43;;;;;;;21.03;57.73;99740.59;4974162;28;20054;-62
2022/06/27 02:14:03;;;;;;;5.68;4.97;;;;;;;21.01;57.72;99730.03;4974140;28;20057;-64
2022/06/27 02:16:30;;;;;;;5.40;4.90;;;;;;;21.01;57.72;99742.59;4991865;28;20058;-63
2022/06/27 02:18:57;;;;;;;7.65;4.90;;;;;;;20.99;57.83;99740.06;4973883;28;20054;-67
2022/06/27 02:21:25;;;;;;;5.65;4.65;;;;;;;20.98;58.03;99738.41;4991478;28;20121;-62
2022/06/27 02:23:53;;;;;;;5.85;4.95;;;;;;;20.99;57.83;99731.19;4991275;28;20046;-61
2022/06/27 02:26:24;;;;;;;8.40;5.18;;;;;;;20.98;58.26;99721.50;4974011;28;20093;-61
2022/06/27 02:28:53;;;;;;;6.88;5.82;;;;;;;20.98;58.40;99729.53;4991214;28;20053;-61
2022/06/27 02:31:20;;;;;;;6.10;5.60;;;;;;;20.98;58.28;99737.56;4973943;28;20057;-63
2022/06/27 02:33:49;;;;;;;8.75;5.72;;;;;;;20.95;58.62;99736.88;4973880;28;20065;-62
2022/06/27 02:36:22;;;;;;;6.25;5.65;;;;;;;20.96;58.55;99725.19;4974029;28;20061;-64
2022/06/27 02:38:51;;;;;;;7.00;5.95;;;;;;;20.95;58.92;99734.22;4973521;28;20667;-61
2022/06/27 02:41:20;;;;;;;6.45;5.85;;;;;;;20.98;58.90;99750.94;4973632;28;20388;-62
2022/06/27 02:43:49;;;;;;;14.52;6.00;;;;;;;20.99;58.95;99741.91;4973576;28;20573;-62
2022/06/27 02:46:16;;;;;;;5.97;5.45;;;;;;;21.00;58.84;99743.59;4973677;28;20054;-64
2022/06/27 02:48:47;;;;;;;6.75;6.05;;;;;;;21.00;59.50;99748.94;4990937;28;20109;-62
2022/06/27 02:51:20;;;;;;;6.50;5.22;;;;;;;21.00;59.57;99743.59;4991062;28;20096;-64
2022/06/27 02:53:55;;;;;;;8.30;5.72;;;;;;;21.00;59.60;99743.59;4991284;28;20046;-62
2022/06/27 02:56:25;;;;;;;10.38;5.50;;;;;;;21.02;59.65;99736.25;4991107;28;20050;-65
2022/06/27 02:59:02;;;;;;;6.22;5.63;;;;;;;21.01;59.83;99734.56;4973591;28;20091;-62
2022/06/27 03:01:31;;;;;;;9.73;5.38;;;;;;;21.05;59.27;99738.63;4973627;28;20057;-62
2022/06/27 03:03:59;;;;;;;9.23;6.10;;;;;;;21.05;59.12;99720.69;4973754;28;20137;-62
2022/06/27 03:06:27;;;;;;;7.13;6.05;;;;;;;21.04;59.20;99712.84;4975723;28;20062;-62
2022/06/27 03:08:54;;;;;;;7.05;5.90;;;;;;;21.03;59.30;99714.69;4954664;28;20069;-61
2022/06/27 03:11:22;;;;;;;6.70;5.70;;;;;;;21.01;59.50;99713.16;4971943;28;20062;-61
2022/06/27 03:13:50;;;;;;;8.20;6.32;;;;;;;20.99;59.79;99715.13;4971378;28;20058;-64
2022/06/27 03:16:19;;;;;;;6.90;6.03;;;;;;;20.96;59.64;99703.78;4972777;28;20426;-62
2022/06/27 03:18:47;;;;;;;8.15;5.63;;;;;;;20.95;59.80;99707.44;4975297;28;20063;-62
2022/06/27 03:21:17;;;;;;;9.63;6.53;;;;;;;20.94;59.86;99710.28;4958024;28;20062;-61
2022/06/27 03:23:46;;;;;;;6.45;5.85;;;;;;;20.95;60.31;99706.59;4958174;28;20046;-61
2022/06/27 03:26:13;;;;;;;9.45;6.28;;;;;;;20.95;60.06;99707.44;4975038;28;20059;-63
2022/06/27 03:28:40;;;;;;;6.55;5.88;;;;;;;20.96;60.01;99695.75;4957705;28;20552;-62
2022/06/27 03:31:07;;;;;;;8.43;6.32;;;;;;;20.95;59.84;99696.75;4957700;28;20133;-62
2022/06/27 03:33:34;;;;;;;7.60;6.22;;;;;;;20.95;60.22;99685.19;4974907;28;20082;-61
2022/06/27 03:36:01;;;;;;;10.20;6.65;;;;;;;20.94;60.30;99688.88;4974795;28;20051;-61
2022/06/27 03:38:27;;;;;;;7.85;6.65;;;;;;;20.93;60.48;99685.34;4974646;28;20051;-61
2022/06/27 03:40:54;;;;;;;7.57;6.70;;;;;;;20.92;60.28;99686.34;4975122;28;20063;-63
2022/06/27 03:43:21;;;;;;;8.73;6.95;;;;;;;20.91;60.41;99689.19;4974820;28;20047;-61
2022/06/27 03:45:49;;;;;;;7.47;6.78;;;;;;;20.91;60.58;99683.81;4974484;28;20819;-64
2022/06/27 03:51:00;;;;;;;11.60;6.68;;;;;;;20.88;60.99;99657.38;4974833;28;20054;-61
2022/06/27 03:53:27;;;;;;;9.77;7.35;;;;;;;20.89;60.80;99657.22;4992412;28;20090;-63
2022/06/27 03:55:54;;;;;;;11.25;7.70;;;;;;;20.89;60.86;99667.09;4976540;28;20423;-61
2022/06/27 03:58:20;;;;;;;9.73;8.20;;;;;;;20.88;60.91;99668.06;4994111;28;20058;-61
2022/06/27 04:00:47;;;;;;;9.35;8.15;;;;;;;20.88;60.83;99674.28;4993951;28;20113;-62
2022/06/27 04:03:14;;;;;;;11.43;7.57;;;;;;;20.87;60.86;99669.94;4993720;28;20557;-61
2022/06/27 04:05:41;;;;;;;10.68;8.15;;;;;;;20.85;61.02;99661.19;4994061;28;20051;-62
2022/06/27 04:08:08;;;;;;;9.63;7.55;;;;;;;20.86;61.17;99640.63;4993533;28;20055;-62
2022/06/27 04:10:34;;;;;;;8.68;7.68;;;;;;;20.86;61.31;99637.94;4993723;28;20062;-61
2022/06/27 04:13:01;;;;;;;12.23;8.88;;;;;;;20.85;61.36;99629.06;4993908;28;20054;-63
2022/06/27 04:15:28;;;;;;;13.30;8.48;;;;;;;20.86;61.31;99619.22;4993732;28;20058;-62
2022/06/27 04:17:54;;;;;;;9.18;7.93;;;;;;;20.86;61.25;99616.56;4993748;28;20062;-62
2022/06/27 04:20:21;;;;;;;11.18;7.78;;;;;;;20.86;61.29;99609.34;4993506;28;20479;-60
2022/06/27 04:22:47;;;;;;;11.73;8.43;;;;;;;20.87;61.03;99588.78;4993347;28;20054;-61
2022/06/27 04:25:14;;;;;;;9.30;8.40;;;;;;;20.88;61.30;99594.03;4989128;28;20082;-61
2022/06/27 04:27:41;;;;;;;8.95;8.05;;;;;;;20.88;61.20;99595.84;4973302;28;20113;-61
2022/06/27 04:30:09;;;;;;;12.15;9.00;;;;;;;20.88;61.28;99596.69;4974050;28;20058;-61
2022/06/27 04:32:36;;;;;;;9.65;7.80;;;;;;;20.88;61.14;99588.66;4957081;28;20070;-64
2022/06/27 04:35:03;;;;;;;11.68;8.15;;;;;;;20.86;61.15;99598.63;4990472;28;20058;-62
2022/06/27 04:37:29;;;;;;;12.23;8.63;;;;;;;20.84;61.51;99600.66;4993282;28;20128;-61
2022/06/27 04:39:56;;;;;;;10.20;9.05;;;;;;;20.83;61.67;99598.97;4975457;28;20491;-63
2022/06/27 04:42:23;;;;;;;10.95;8.20;;;;;;;20.83;61.29;99618.53;4973847;28;20047;-62
2022/06/27 04:44:49;;;;;;;9.25;8.32;;;;;;;20.83;61.53;99628.41;4973723;28;20047;-61
2022/06/27 04:47:16;;;;;;;14.10;8.10;;;;;;;20.83;61.32;99645.28;4973694;28;20058;-65
2022/06/27 04:49:43;;;;;;;10.45;8.68;;;;;;;20.83;61.40;99639.09;4973214;28;20641;-63
2022/06/27 04:52:11;;;;;;;9.35;8.45;;;;;;;20.84;61.39;99648.81;4973453;28;20495;-61
2022/06/27 04:54:38;;;;;;;9.48;8.48;;;;;;;20.83;61.77;99657.84;4956578;28;20051;-61
2022/06/27 04:57:05;;;;;;;10.45;9.40;;;;;;;20.82;61.54;99669.53;4973676;28;20051;-64
2022/06/27 04:59:32;;;;;;;11.10;8.75;;;;;;;20.79;61.72;99686.72;4956213;28;20074;-62
2022/06/27 05:01:59;;;;;;;10.20;8.77;;;;;;;20.78;61.34;99679.69;4973546;28;20050;-64
2022/06/27 05:04:28;;;;;;;11.35;8.68;;;;;;;20.75;61.23;99695.22;4973377;28;20046;-61
2022/06/27 05:06:55;;;;;;;8.85;8.05;;;;;;;20.73;61.28;99700.72;4973345;28;20086;-62
2022/06/27 05:09:22;;;;;;;9.68;8.75;;;;;;;20.71;61.40;99694.72;4956026;28;20065;-62
2022/06/27 05:11:50;;;;;;;10.48;9.27;;;;;;;20.69;61.54;99684.16;4973109;28;20500;-62
2022/06/27 05:14:17;;;;;;;10.25;9.18;;;;;;;20.69;61.64;99697.53;4956095;28;20054;-63
2022/06/27 05:16:44;;;;;;;10.63;8.57;;;;;;;20.68;61.54;99690.47;4973141;28;20050;-60
2022/06/27 05:19:11;;;;;;;8.90;8.05;;;;;;;20.67;61.79;99696.84;4972691;28;20158;-61
2022/06/27 05:21:43;;;;;;;8.80;7.97;;;;;;;20.66;61.71;99697.84;4972940;28;20086;-61
2022/06/27 05:24:11;;;;;;;7.80;6.50;;;;;;;20.65;61.38;99704.19;4972934;28;20058;-62
2022/06/27 05:26:38;;;;;;;7.57;6.50;;;;;;;20.65;61.15;99711.34;4972644;28;20085;-61
2022/06/27 05:29:05;;;;;;;5.95;5.32;;;;;;;20.63;60.89;99713.34;4972908;28;20061;-62
2022/06/27 05:31:32;;;;;;;6.90;5.68;;;;;;;20.62;61.02;99692.94;4972250;28;20121;-62
2022/06/27 05:34:00;;;;;;;6.50;5.13;;;;;;;20.60;60.99;99693.13;4972648;28;20334;-62
2022/06/27 05:36:26;;;;;;;5.88;4.55;;;;;;;20.60;60.69;99676.22;4972938;28;20057;-61
2022/06/27 05:38:53;;;;;;;4.65;4.05;;;;;;;20.55;60.77;99666.81;4972792;28;20043;-62
2022/06/27 05:41:21;;;;;;;8.07;5.20;;;;;;;20.53;60.74;99676.81;4972876;28;20462;-62
2022/06/27 05:43:48;;;;;;;7.55;4.18;;;;;;;20.52;60.80;99683.16;4972640;28;20518;-63
2022/06/27 05:46:15;;;;;;;4.50;4.10;;;;;;;20.49;60.60;99691.53;4955316;28;20554;-61
2022/06/27 05:48:42;;;;;;;4.45;4.05;;;;;;;20.49;60.77;99690.66;4972296;28;20047;-61
2022/06/27 05:51:09;;;;;;;4.75;4.30;;;;;;;20.48;61.00;99695.16;4972348;28;20051;-60
2022/06/27 05:53:38;;;;;;;4.05;3.65;;;;;;;20.49;60.73;99693.34;4955427;28;20082;-63
2022/06/27 05:56:06;;;;;;;3.50;3.20;;;;;;;20.49;60.69;99699.53;4972495;28;20066;-62
2022/06/27 05:58:34;;;;;;;4.53;3.38;;;;;;;20.51;60.67;99689.53;4955258;28;20054;-61
2022/06/27 06:01:01;;;;;;;4.35;3.47;;;;;;;20.52;60.57;99691.19;4972279;28;20058;-61
2022/06/27 06:03:28;;;;;;;5.88;3.90;;;;;;;20.53;60.74;99692.03;4972414;28;20467;-63
2022/06/27 06:05:56;;;;;;;4.03;3.10;;;;;;;20.56;60.91;99678.38;4972111;28;20145;-61
2022/06/27 06:08:23;;;;;;;3.92;3.50;;;;;;;20.59;61.12;99686.06;4972332;28;20085;-62
2022/06/27 06:10:50;;;;;;;6.10;3.47;;;;;;;20.64;60.87;99689.09;4954922;28;20054;-64
2022/06/27 06:13:18;;;;;;;6.60;3.22;;;;;;;20.67;60.59;99694.16;4972140;28;20047;-61
2022/06/27 06:15:45;;;;;;;3.90;3.50;;;;;;;20.72;60.47;99680.31;4971923;28;20495;-61
2022/06/27 06:18:12;;;;;;;3.70;3.28;;;;;;;20.74;60.29;99666.81;4974846;28;20046;-64
2022/06/27 06:20:39;;;;;;;3.38;3.00;;;;;;;20.78;60.34;99652.13;4962685;28;20451;-61
2022/06/27 06:23:06;;;;;;;3.58;3.25;;;;;;;20.80;60.43;99666.16;4963781;28;20050;-62
2022/06/27 06:25:32;;;;;;;4.40;3.72;;;;;;;20.82;60.50;99666.88;4982620;28;20101;-62
2022/06/27 06:28:01;;;;;;;4.18;3.45;;;;;;;20.87;60.38;99666.38;4979600;28;20050;-61
2022/06/27 06:30:30;;;;;;;5.35;3.78;;;;;;;20.91;60.48;99682.00;4954864;28;20053;-65
2022/06/27 06:33:02;;;;;;;3.28;2.97;;;;;;;20.96;60.34;99713.63;4955003;28;20146;-61
2022/06/27 06:35:30;;;;;;;5.05;4.28;;;;;;;20.98;59.81;99700.94;4954541;28;20043;-63
2022/06/27 06:37:58;;;;;;;4.60;3.75;;;;;;;20.99;60.08;99669.66;4971880;28;20051;-61
2022/06/27 06:40:24;;;;;;;4.90;3.60;;;;;;;20.99;59.64;99645.56;4954558;28;20181;-62
2022/06/27 06:42:51;;;;;;;4.88;4.00;;;;;;;20.98;59.61;99651.94;4954275;28;20063;-62
2022/06/27 06:45:18;;;;;;;4.35;3.95;;;;;;;20.98;59.69;99667.97;4971789;28;20047;-61
2022/06/27 06:47:46;;;;;;;3.90;3.60;;;;;;;20.96;59.55;99676.16;4971918;28;20062;-62
2022/06/27 06:50:18;;;;;;;4.40;3.67;;;;;;;20.94;59.72;99678.16;4954405;28;20053;-62
2022/06/27 06:52:49;;;;;;;4.10;3.70;;;;;;;20.93;59.68;99687.19;4960785;28;20094;-63
2022/06/27 06:55:16;;;;;;;5.82;4.03;;;;;;;20.90;59.71;99682.97;4960935;28;20086;-62
2022/06/27 06:57:42;;;;;;;7.13;3.72;;;;;;;20.90;59.47;99695.53;4978159;28;20055;-62
2022/06/27 07:00:11;;;;;;;4.80;3.88;;;;;;;20.89;59.83;99707.22;4978102;28;20082;-62
2022/06/27 07:02:38;;;;;;;4.53;3.35;;;;;;;20.88;59.61;99717.09;4960715;28;20521;-62
2022/06/27 07:05:08;;;;;;;4.28;3.30;;;;;;;20.88;59.56;99718.91;4978158;28;20078;-62
2022/06/27 07:07:35;;;;;;;4.75;3.50;;;;;;;20.88;59.02;99732.28;4960728;28;20055;-61
2022/06/27 07:10:04;;;;;;;4.88;3.33;;;;;;;20.86;59.23;99735.09;4977721;28;20134;-62
2022/06/27 07:12:33;;;;;;;5.50;3.10;;;;;;;20.85;59.04;99735.25;4960528;28;20411;-62
2022/06/27 07:15:01;;;;;;;5.00;3.17;;;;;;;20.83;59.17;99744.25;4960690;28;20070;-63
2022/06/27 07:17:28;;;;;;;5.45;3.45;;;;;;;20.85;59.37;99745.97;4960699;28;20135;-62
2022/06/27 07:19:56;;;;;;;3.85;3.35;;;;;;;20.84;59.44;99755.81;4977491;28;20142;-61
2022/06/27 07:22:24;;;;;;;3.10;2.63;;;;;;;20.84;59.46;99742.44;4977714;28;20098;-61
2022/06/27 07:24:50;;;;;;;3.25;2.90;;;;;;;20.85;58.99;99720.03;4960935;28;20063;-62
2022/06/27 07:27:17;;;;;;;4.38;3.28;;;;;;;20.84;58.93;99721.03;4977979;28;20462;-62
2022/06/27 07:29:44;;;;;;;3.78;3.35;;;;;;;20.85;59.03;99730.72;4960577;28;20054;-62
2022/06/27 07:32:11;;;;;;;3.35;2.83;;;;;;;20.83;58.73;99714.00;4977861;28;20054;-62
2022/06/27 07:34:38;;;;;;;3.50;3.20;;;;;;;20.83;59.00;99704.13;4978158;28;20059;-62
2022/06/27 07:37:04;;;;;;;3.90;3.05;;;;;;;20.81;59.35;99699.94;4977709;28;20106;-61
2022/06/27 07:39:31;;;;;;;4.05;3.20;;;;;;;20.83;59.17;99705.97;4977416;28;20054;-61
2022/06/27 07:41:58;;;;;;;4.38;3.33;;;;;;;20.85;59.58;99711.19;4977975;28;20054;-62
2022/06/27 07:44:25;;;;;;;4.15;3.33;;;;;;;20.88;59.68;99719.75;4977381;28;20639;-61
2022/06/27 07:46:51;;;;;;;3.13;2.80;;;;;;;20.92;59.82;99725.63;4960493;28;20050;-61
2022/06/27 07:49:18;;;;;;;5.65;3.28;;;;;;;20.98;60.11;99740.22;4977371;28;20197;-64
2022/06/27 07:51:47;;;;;;;3.40;2.97;;;;;;;21.03;59.77;99737.91;4977863;28;20117;-63
2022/06/27 07:54:16;;;;;;;5.80;2.90;;;;;;;21.08;59.28;99731.09;4977652;28;20059;-62
2022/06/27 07:56:43;;;;;;;3.25;3.03;;;;;;;21.13;59.64;99727.97;4977848;28;20411;-62
2022/06/27 07:59:28;;;;;;;3.45;3.13;;;;;;;21.18;59.26;99704.25;4977379;28;20483;-61
2022/06/27 08:01:55;;;;;;;8.32;2.95;;;;;;;21.21;59.39;99670.97;4976954;28;20066;-62
2022/06/27 08:04:23;;;;;;;3.40;2.83;;;;;;;21.25;59.41;99658.09;4973578;28;20110;-61
2022/06/27 08:06:51;;;;;;;3.75;2.90;;;;;;;21.28;59.41;99669.34;4957299;28;20078;-61
2022/06/27 08:09:22;;;;;;;2.78;2.55;;;;;;;21.33;59.21;99683.06;4956880;28;20055;-63
2022/06/27 08:11:49;;;;;;;2.95;2.60;;;;;;;21.38;59.02;99689.78;4957195;28;20479;-63
2022/06/27 08:14:17;;;;;;;3.17;2.85;;;;;;;21.42;58.84;99680.44;4974160;28;20077;-61
2022/06/27 08:16:49;;;;;;;4.05;2.72;;;;;;;21.45;58.99;99688.97;4974180;28;20788;-62
2022/06/27 08:19:17;;;;;;;4.35;3.08;;;;;;;21.50;58.76;99711.75;4974181;28;20054;-61
2022/06/27 08:21:44;;;;;;;3.92;2.80;;;;;;;21.51;58.54;99708.94;4974270;28;20066;-62
2022/06/27 08:24:16;;;;;;;5.57;3.42;;;;;;;21.54;58.41;99731.88;4956916;28;20427;-61
2022/06/27 08:26:46;;;;;;;4.70;3.45;;;;;;;21.54;58.42;99731.88;4957076;28;20051;-61
2022/06/27 08:29:14;;;;;;;3.65;3.05;;;;;;;21.55;58.19;99739.75;4956873;28;20114;-63
2022/06/27 08:31:41;;;;;;;3.03;2.72;;;;;;;21.54;58.18;99751.47;4974338;28;20043;-62
2022/06/27 08:34:09;;;;;;;4.22;3.22;;;;;;;21.53;57.90;99756.97;4973898;28;20467;-62
2022/06/27 08:36:36;;;;;;;3.42;2.97;;;;;;;21.50;58.04;99762.63;4973936;28;20062;-63
2022/06/27 08:39:07;;;;;;;5.28;3.67;;;;;;;21.46;57.97;99762.13;4956438;28;20512;-62
2022/06/27 08:41:35;;;;;;;3.75;3.35;;;;;;;21.44;57.90;99764.09;4973761;28;20051;-62
2022/06/27 08:44:04;;;;;;;5.45;3.65;;;;;;;21.39;57.93;99777.13;4973878;28;20137;-63
2022/06/27 08:46:32;;;;;;;5.25;4.45;;;;;;;21.35;58.09;99787.34;4973762;28;20050;-62
2022/06/27 08:48:59;;;;;;;6.43;4.20;;;;;;;21.29;58.09;99791.47;4956296;28;20085;-61
2022/06/27 08:51:28;;;;;;;4.00;3.13;;;;;;;21.24;58.29;99791.09;4973565;28;20517;-64
2022/06/27 08:53:55;;;;;;;4.53;2.85;;;;;;;21.20;58.18;99789.75;4973686;28;20062;-61
2022/06/27 08:56:24;;;;;;;4.68;3.40;;;;;;;21.16;58.45;99788.38;4956414;28;20058;-64
2022/06/27 08:58:52;;;;;;;3.50;2.95;;;;;;;21.12;58.46;99782.47;4973377;28;20055;-61
2022/06/27 09:01:22;;;;;;;4.20;3.42;;;;;;;21.08;58.42;99762.38;4973410;28;20050;-61
2022/06/27 09:04:00;;;;;;;3.70;3.15;;;;;;;21.03;59.31;99756.66;4973333;28;20054;-61
2022/06/27 09:06:33;;;;;;;4.60;2.83;;;;;;;21.02;59.35;99753.16;4956293;28;20050;-62
2022/06/27 09:09:06;;;;;;;6.22;3.35;;;;;;;21.03;59.37;99764.69;4956112;28;20137;-62
2022/06/27 09:11:37;;;;;;;4.47;2.88;;;;;;;21.04;59.65;99769.06;4973448;28;20046;-62
2022/06/27 09:14:05;;;;;;;3.08;2.78;;;;;;;21.06;59.38;99783.97;4955734;28;20510;-62
2022/06/27 09:16:33;;;;;;;4.63;3.13;;;;;;;21.08;59.56;99775.75;4973018;28;20106;-62
2022/06/27 09:19:05;;;;;;;3.28;2.65;;;;;;;21.12;59.45;99782.47;4956549;28;20082;-62
2022/06/27 09:21:33;;;;;;;4.10;3.40;;;;;;;21.14;59.38;99782.31;4973318;28;20077;-62
2022/06/27 09:24:01;;;;;;;3.40;2.97;;;;;;;21.16;59.53;99778.47;4955917;28;20047;-61
2022/06/27 09:26:30;;;;;;;3.20;2.90;;;;;;;21.20;59.50;99773.69;4973025;28;20561;-61
2022/06/27 09:29:14;;;;;;;3.55;2.63;;;;;;;21.21;60.16;99770.84;4955652;28;20061;-64
2022/06/27 09:31:42;;;;;;;3.42;2.67;;;;;;;21.34;60.20;99758.84;4955739;28;20080;-64
2022/06/27 09:34:18;;;;;;;4.00;3.25;;;;;;;21.42;60.38;99750.88;4972759;28;20050;-62
2022/06/27 09:36:50;;;;;;;5.10;3.08;;;;;;;21.57;61.19;99756.47;4972796;28;20141;-63
2022/06/27 09:39:19;;;;;;;5.25;3.00;;;;;;;21.74;60.51;99762.81;4955352;28;20102;-63
2022/06/27 09:41:58;;;;;;;4.20;3.33;;;;;;;21.89;60.58;99772.91;4955425;28;20062;-61
2022/06/27 09:44:38;;;;;;;6.28;3.22;;;;;;;22.06;60.11;99776.50;4955404;28;20106;-63
2022/06/27 09:47:20;;;;;;;3.60;3.25;;;;;;;22.22;59.34;99780.22;4955425;28;20061;-65
2022/06/27 09:49:50;;;;;;;6.65;3.35;;;;;;;22.36;58.69;99789.47;4955340;28;20054;-65
2022/06/27 09:52:23;;;;;;;8.30;3.58;;;;;;;22.41;58.16;99773.72;4972572;28;20050;-63
2022/06/27 09:54:52;;;;;;;3.65;3.28;;;;;;;22.47;58.32;99775.72;4955696;28;20134;-61
2022/06/27 09:57:20;;;;;;;6.03;3.70;;;;;;;22.50;58.06;99790.69;4955091;28;20050;-63
2022/06/27 09:59:50;;;;;;;7.22;3.83;;;;;;;22.51;57.93;99808.44;4972404;28;20054;-62
2022/06/27 10:02:19;;;;;;;4.65;3.75;;;;;;;22.51;57.81;99820.00;4972374;28;20108;-65
2022/06/27 10:04:49;;;;;;;6.10;3.17;;;;;;;22.51;57.44;99811.97;4972237;28;20051;-62
2022/06/27 10:07:17;;;;;;;5.97;3.25;;;;;;;22.51;57.85;99811.97;4954912;28;20054;-63
2022/06/27 10:09:48;;;;;;;3.53;2.80;;;;;;;22.51;57.70;99816.50;4954884;28;20097;-61
2022/06/27 10:12:25;;;;;;;4.65;3.10;;;;;;;22.47;56.90;99807.09;4972105;28;20057;-61
2022/06/27 10:15:10;;;;;;;5.57;3.00;;;;;;;22.43;57.30;99821.84;4972353;28;20050;-62
2022/06/27 10:17:43;;;;;;;3.30;3.00;;;;;;;22.45;57.24;99815.31;4972205;28;20124;-62
2022/06/27 10:20:12;;;;;;;5.30;3.38;;;;;;;22.43;56.84;99808.44;4954961;28;20051;-63
2022/06/27 10:22:39;;;;;;;6.28;3.33;;;;;;;22.43;57.40;99813.78;4954806;28;20468;-62
2022/06/27 10:25:28;;;;;;;6.68;2.95;;;;;;;22.37;57.49;99829.53;4971830;28;20051;-62
2022/06/27 10:28:07;;;;;;;4.65;3.33;;;;;;;22.39;57.28;99853.53;4971710;28;20157;-62
2022/06/27 10:30:52;;;;;;;5.63;3.70;;;;;;;22.38;56.80;99857.19;4954712;28;20058;-62
2022/06/27 10:33:24;;;;;;;4.35;3.20;;;;;;;22.37;57.32;99852.81;4971920;28;20050;-61
2022/06/27 10:35:54;;;;;;;7.45;3.30;;;;;;;22.35;57.16;99852.16;4971913;28;20415;-61
2022/06/27 10:38:22;;;;;;;7.25;4.10;;;;;;;22.32;56.88;99833.72;4971744;28;20055;-61
2022/06/27 10:40:52;;;;;;;6.65;3.88;;;;;;;22.29;56.97;99825.97;4954777;28;20101;-61
2022/06/27 10:43:38;;;;;;;6.07;3.88;;;;;;;22.22;57.61;99836.53;4954496;28;20057;-61
2022/06/27 10:46:10;;;;;;;6.22;4.40;;;;;;;22.23;57.85;99838.19;4971937;28;20047;-62
2022/06/27 10:48:58;;;;;;;6.85;4.20;;;;;;;22.25;57.50;99841.56;4954220;28;20133;-61
2022/06/27 10:51:28;;;;;;;6.50;4.80;;;;;;;22.23;57.17;99836.38;4971934;28;20106;-63
2022/06/27 10:53:58;;;;;;;8.82;4.68;;;;;;;22.23;57.45;99830.16;4971868;28;20082;-61
2022/06/27 10:56:39;;;;;;;5.78;4.65;;;;;;;22.22;57.59;99831.16;4971539;28;20499;-61
2022/06/27 10:59:15;;;;;;;7.20;5.40;;;;;;;22.21;57.86;99829.47;4971367;28;20070;-61
2022/06/27 11:02:03;;;;;;;7.40;4.88;;;;;;;22.25;58.07;99822.78;4971826;28;20109;-63
2022/06/27 11:04:38;;;;;;;7.40;4.55;;;;;;;22.26;58.65;99816.44;4971423;28;20479;-63
2022/06/27 11:07:09;;;;;;;6.75;4.28;;;;;;;22.33;59.17;99798.69;4954040;28;20125;-63
2022/06/27 11:09:44;;;;;;;4.85;4.25;;;;;;;22.42;59.06;99790.66;4954123;28;20051;-61
2022/06/27 11:12:14;;;;;;;11.02;5.22;;;;;;;22.55;58.61;99798.25;4954587;28;20062;-62
2022/06/27 11:14:50;;;;;;;6.75;4.70;;;;;;;22.66;58.74;99784.53;4971648;28;20106;-62
2022/06/27 11:17:31;;;;;;;6.50;4.60;;;;;;;22.80;58.44;99787.56;4955340;28;20054;-63
2022/06/27 11:20:12;;;;;;;6.45;4.60;;;;;;;22.93;58.90;99797.78;4953917;28;20093;-62
2022/06/27 11:23:01;;;;;;;8.90;4.22;;;;;;;23.13;57.80;99809.00;4957591;28;20392;-62
2022/06/27 11:25:29;;;;;;;5.32;4.35;;;;;;;23.23;57.38;99816.91;4971480;28;20051;-61
2022/06/27 11:31:57;;;;;;;6.13;4.32;;;;;;;23.30;57.06;99834.03;4971421;28;20054;-61
2022/06/27 11:33:34;;;;;;;7.43;4.30;;;;;;;23.35;56.26;99809.34;4971066;28;20487;-62
2022/06/27 11:36:02;;;;;;;5.70;4.30;;;;;;;23.35;56.05;99814.72;4954106;28;20134;-63
2022/06/27 11:38:42;;;;;;;5.63;4.38;;;;;;;23.28;55.95;99815.38;4974072;28;20137;-63
2022/06/27 11:41:12;;;;;;;6.18;4.75;;;;;;;23.29;55.92;99814.38;4975078;28;20086;-61
2022/06/27 11:44:02;;;;;;;7.55;4.70;;;;;;;23.21;56.07;99819.75;4957736;28;20090;-60
2022/06/27 11:46:45;;;;;;;6.10;3.83;;;;;;;23.21;55.82;99822.44;4974880;28;20118;-61